Time;durP1;ratioP1;P1;durP2;ratioP2;P2;SDS_P1;SDS_P2;PMS_P1;PMS_P2;Temp;Humidity;BMP_temperature;BMP_pressure;BME280_temperature;BME280_humidity;BME280_pressure;Samples;Min_cycle;Max_cycle;Signal;HPM_P1;HPM_P2
2022/12/17 13:08:03;;;;;;;82.35;37.22;;;0.10;99.90;;;;;;5114002;28;20058;-82
2022/12/17 13:10:30;;;;;;;73.68;31.40;;;0.00;99.90;;;;;;5095520;28;20040;-82
2022/12/17 13:12:55;;;;;;;82.00;34.70;;;0.10;99.90;;;;;;5111803;28;20685;-82
2022/12/17 13:15:25;;;;;;;86.07;34.38;;;0.90;99.90;;;;;;5091047;28;20126;-82
2022/12/17 13:17:55;;;;;;;85.10;33.92;;;0.00;99.90;;;;;;5058261;28;20070;-82
2022/12/17 13:20:31;;;;;;;83.72;33.97;;;0.80;99.90;;;;;;5074445;28;20048;-82
2022/12/17 13:23:25;;;;;;;89.47;36.08;;;0.10;99.90;;;;;;5056510;28;20122;-82
2022/12/17 13:26:03;;;;;;;85.35;34.92;;;0.20;99.90;;;;;;5058962;28;20056;-82
2022/12/17 13:28:29;;;;;;;88.72;35.97;;;1.50;99.90;;;;;;5057836;28;20052;-82
2022/12/17 13:31:05;;;;;;;68.18;29.20;;;0.10;99.90;;;;;;5057094;28;20105;-82
2022/12/17 13:34:15;;;;;;;81.82;32.90;;;0.10;99.90;;;;;;5074749;28;20044;-83
2022/12/17 13:37:28;;;;;;;78.30;32.88;;;0.10;99.90;;;;;;5035560;28;20135;-82
2022/12/17 13:39:58;;;;;;;84.38;33.15;;;0.10;99.90;;;;;;4999863;28;20739;-82
2022/12/17 13:42:30;;;;;;;79.95;33.50;;;0.60;99.90;;;;;;5103267;28;20051;-82
2022/12/17 13:44:56;;;;;;;77.13;32.33;;;0.00;99.90;;;;;;5093932;28;20384;-83
2022/12/17 13:47:27;;;;;;;86.28;36.10;;;1.60;99.90;;;;;;5091372;28;20044;-83
2022/12/17 13:49:54;;;;;;;86.40;34.40;;;0.00;99.90;;;;;;5077126;28;20488;-83
2022/12/17 13:52:22;;;;;;;79.88;33.83;;;0.00;99.90;;;;;;5091154;28;20044;-84
2022/12/17 13:54:47;;;;;;;83.10;32.85;;;0.00;99.90;;;;;;5077376;28;20107;-82
2022/12/17 13:57:18;;;;;;;83.28;33.75;;;-0.10;99.90;;;;;;5077152;28;20737;-83
2022/12/17 13:59:51;;;;;;;86.03;34.72;;;1.60;99.90;;;;;;5076587;28;20059;-83
2022/12/17 14:02:33;;;;;;;82.05;32.65;;;1.00;99.90;;;;;;5077548;28;20095;-83
2022/12/17 14:05:01;;;;;;;82.00;32.38;;;-0.10;99.90;;;;;;5078809;28;20061;-82
2022/12/17 14:07:27;;;;;;;82.53;32.50;;;-0.10;99.90;;;;;;5094047;28;20048;-83
2022/12/17 14:09:53;;;;;;;83.95;34.63;;;1.10;99.90;;;;;;5094248;27;20093;-82
2022/12/17 14:12:23;;;;;;;84.65;32.03;;;-0.20;99.90;;;;;;5093609;28;20087;-82
2022/12/17 14:14:58;;;;;;;79.53;32.75;;;1.30;99.90;;;;;;5089334;27;20091;-83
2022/12/17 14:17:28;;;;;;;74.72;31.95;;;-0.20;99.90;;;;;;5114096;27;20050;-82
2022/12/17 14:20:00;;;;;;;78.55;32.67;;;-0.20;99.90;;;;;;5097765;27;20415;-82
2022/12/17 14:22:35;;;;;;;80.85;32.95;;;0.90;99.90;;;;;;5097043;27;20081;-82
2022/12/17 14:25:01;;;;;;;85.32;34.05;;;-0.20;99.90;;;;;;5091018;27;20057;-82
2022/12/17 14:27:31;;;;;;;77.32;32.35;;;1.40;99.90;;;;;;5076759;28;20047;-83
2022/12/17 14:29:57;;;;;;;66.65;25.88;;;-0.20;99.90;;;;;;5094443;27;20119;-82
2022/12/17 14:32:25;;;;;;;79.90;30.95;;;-0.30;99.90;;;;;;5102629;27;20457;-82
2022/12/17 14:34:51;;;;;;;74.82;30.98;;;-0.20;99.90;;;;;;5115440;27;20602;-83
2022/12/17 14:37:20;;;;;;;76.10;30.73;;;-0.10;99.90;;;;;;5093482;28;20047;-82
2022/12/17 14:39:46;;;;;;;69.85;28.52;;;-0.40;99.90;;;;;;5109977;28;20052;-85
2022/12/17 14:42:28;;;;;;;73.07;29.25;;;-0.40;99.90;;;;;;5059759;28;20479;-82
2022/12/17 14:45:05;;;;;;;79.82;29.88;;;-0.50;99.90;;;;;;5079469;28;20406;-83
2022/12/17 14:47:35;;;;;;;77.65;30.92;;;-0.60;99.90;;;;;;5077221;28;20086;-82
2022/12/17 14:50:22;;;;;;;78.90;31.30;;;-0.60;99.90;;;;;;5081361;27;20051;-83
2022/12/17 14:52:49;;;;;;;77.07;29.52;;;-0.60;99.90;;;;;;5117264;27;20048;-83
2022/12/17 14:55:31;;;;;;;84.15;30.33;;;0.60;99.90;;;;;;5083542;27;20062;-84
2022/12/17 14:58:15;;;;;;;74.45;30.70;;;-0.60;99.90;;;;;;5100221;27;20048;-82
2022/12/17 15:00:55;;;;;;;79.37;29.90;;;-0.60;99.90;;;;;;5115908;27;20050;-82
2022/12/17 15:03:28;;;;;;;79.18;29.50;;;-0.60;99.90;;;;;;5080064;27;20060;-83
2022/12/17 15:06:02;;;;;;;82.47;30.70;;;-0.60;99.90;;;;;;5119354;27;20083;-83
2022/12/17 15:08:35;;;;;;;84.28;31.52;;;-0.60;99.90;;;;;;5098572;27;20048;-83
2022/12/17 15:11:01;;;;;;;63.20;24.30;;;-0.70;99.90;;;;;;5095453;27;20399;-83
2022/12/17 15:13:27;;;;;;;84.70;31.75;;;-0.70;99.90;;;;;;5118994;27;20047;-85
2022/12/17 15:15:54;;;;;;;73.93;26.17;;;0.20;99.90;;;;;;5097570;27;20403;-85
2022/12/17 15:18:19;;;;;;;80.65;30.27;;;-0.70;99.90;;;;;;5150486;27;20135;-84
2022/12/17 15:20:45;;;;;;;82.55;29.45;;;-0.70;99.90;;;;;;5132895;27;20478;-84
2022/12/17 15:23:15;;;;;;;81.70;29.10;;;0.80;99.90;;;;;;5131767;27;20047;-86
2022/12/17 15:25:41;;;;;;;85.00;30.98;;;-0.80;99.90;;;;;;5092601;27;20043;-84
2022/12/17 15:28:08;;;;;;;75.43;26.92;;;-0.80;99.90;;;;;;5114606;27;20111;-84
2022/12/17 15:30:34;;;;;;;80.30;28.73;;;-0.80;99.90;;;;;;5096361;27;20089;-82
2022/12/17 15:33:00;;;;;;;79.93;29.25;;;-0.80;99.90;;;;;;5114656;27;20067;-86
2022/12/17 15:35:25;;;;;;;84.00;30.00;;;-0.30;99.90;;;;;;5112327;27;20223;-88
2022/12/17 15:37:51;;;;;;;84.03;28.33;;;-0.80;99.90;;;;;;5106367;27;20475;-87
2022/12/17 15:40:17;;;;;;;83.72;28.90;;;-0.90;99.90;;;;;;5099062;27;20039;-86
2022/12/17 15:45:27;;;;;;;78.03;26.95;;;0.00;99.90;;;;;;5114760;27;20586;-85
2022/12/17 15:47:53;;;;;;;69.03;24.75;;;-1.00;99.90;;;;;;5132551;27;20129;-88
2022/12/17 15:50:18;;;;;;;79.05;28.83;;;-1.10;99.90;;;;;;5115301;27;20043;-88
2022/12/17 15:52:44;;;;;;;81.97;26.85;;;-1.10;99.90;;;;;;5116143;27;20086;-87
2022/12/17 15:55:10;;;;;;;93.93;29.23;;;0.50;99.90;;;;;;5115818;27;20061;-86
2022/12/17 15:57:36;;;;;;;86.75;29.98;;;-0.50;99.90;;;;;;5116406;27;20130;-87
2022/12/17 16:00:02;;;;;;;85.18;28.75;;;-1.20;99.90;;;;;;5133724;27;20138;-86
2022/12/17 16:02:28;;;;;;;88.70;29.42;;;-1.10;99.90;;;;;;5117900;27;20107;-89
2022/12/17 16:04:54;;;;;;;88.15;30.95;;;-1.20;99.90;;;;;;5117946;27;20043;-86
2022/12/17 16:07:19;;;;;;;93.78;30.45;;;-1.30;99.90;;;;;;5135105;27;20145;-86
2022/12/17 16:09:45;;;;;;;84.80;29.40;;;-1.30;99.90;;;;;;5100118;27;20138;-87
2022/12/17 16:12:11;;;;;;;100.00;32.40;;;-0.10;99.90;;;;;;5118627;27;20047;-88
2022/12/17 16:14:37;;;;;;;96.18;30.40;;;-1.30;99.90;;;;;;5117761;27;20488;-86
2022/12/17 16:17:02;;;;;;;98.00;31.30;;;-1.00;99.90;;;;;;5135232;27;20061;-86
2022/12/17 16:19:28;;;;;;;86.25;27.83;;;-0.70;99.90;;;;;;5115734;27;20050;-88
2022/12/17 16:21:54;;;;;;;90.93;29.45;;;-1.20;99.90;;;;;;5135037;27;20061;-87
2022/12/17 16:24:19;;;;;;;78.65;25.63;;;0.20;99.90;;;;;;5117691;27;20054;-87
2022/12/17 16:26:45;;;;;;;77.72;24.88;;;-1.20;99.90;;;;;;5135625;27;20046;-87
2022/12/17 16:29:11;;;;;;;84.00;26.55;;;-1.10;99.90;;;;;;5117528;27;20080;-84
2022/12/17 16:31:36;;;;;;;83.55;26.48;;;-1.20;99.90;;;;;;5117009;27;20035;-84
2022/12/17 16:34:06;;;;;;;74.20;23.50;;;-0.70;99.90;;;;;;5118647;27;20122;-87
2022/12/17 16:36:31;;;;;;;82.63;27.35;;;-1.30;99.90;;;;;;5118824;27;20047;-86
2022/12/17 16:38:57;;;;;;;90.22;27.52;;;-1.30;99.90;;;;;;5114779;28;20043;-87
2022/12/17 16:41:23;;;;;;;97.28;29.27;;;-1.10;99.90;;;;;;5115180;28;20118;-87
2022/12/17 16:43:49;;;;;;;82.43;27.92;;;-0.80;99.90;;;;;;5098124;28;20130;-85
2022/12/17 16:46:35;;;;;;;91.80;26.67;;;-0.60;99.90;;;;;;5098321;28;20047;-87
2022/12/17 16:49:09;;;;;;;105.20;30.33;;;-0.50;99.90;;;;;;5133544;28;20043;-87
2022/12/17 16:51:35;;;;;;;;;;;-1.40;99.90;;;;;;5097937;28;20051;-86
2022/12/17 16:54:05;;;;;;;68.90;21.83;;;-0.80;99.90;;;;;;5097995;28;20279;-86
2022/12/17 16:56:31;;;;;;;88.43;28.15;;;-1.40;99.90;;;;;;5080477;27;20059;-86
2022/12/17 16:58:56;;;;;;;94.03;29.17;;;-1.50;99.90;;;;;;5099536;27;20047;-86
2022/12/17 17:01:24;;;;;;;85.53;25.85;;;-1.50;99.90;;;;;;5098738;27;20035;-85
2022/12/17 17:03:50;;;;;;;91.88;27.77;;;-0.80;99.90;;;;;;5099129;27;20099;-86
2022/12/17 17:06:16;;;;;;;92.10;27.92;;;-1.50;99.90;;;;;;5101199;27;20494;-85
2022/12/17 17:08:42;;;;;;;81.50;24.98;;;-1.40;99.90;;;;;;5115516;27;20043;-85
2022/12/17 17:11:29;;;;;;;88.57;28.05;;;-1.30;99.90;;;;;;5082031;27;20080;-85
2022/12/17 17:13:54;;;;;;;88.85;28.52;;;0.10;99.90;;;;;;5115295;27;20055;-85
2022/12/17 17:16:22;;;;;;;91.15;28.80;;;-1.50;99.90;;;;;;5097807;27;20047;-86
2022/12/17 17:18:48;;;;;;;92.22;30.20;;;-0.50;99.90;;;;;;5097935;27;20100;-86
2022/12/17 17:21:23;;;;;;;88.15;29.27;;;-1.60;99.90;;;;;;5115129;27;20082;-86
2022/12/17 17:23:52;;;;;;;91.00;27.50;;;-1.60;99.90;;;;;;5115069;27;20555;-85
2022/12/17 17:26:18;;;;;;;84.30;27.50;;;-1.20;99.90;;;;;;5097918;27;20047;-84
2022/12/17 17:28:44;;;;;;;98.55;29.58;;;-1.60;99.90;;;;;;5114546;27;20054;-86
2022/12/17 17:31:11;;;;;;;96.50;29.88;;;-1.40;99.90;;;;;;5113906;27;20899;-84
2022/12/17 17:33:38;;;;;;;95.68;28.83;;;-1.60;99.90;;;;;;5097833;27;20047;-84
2022/12/17 17:36:08;;;;;;;94.07;27.38;;;-1.60;99.90;;;;;;5098019;27;20051;-85
2022/12/17 17:38:37;;;;;;;95.35;30.83;;;-1.60;99.90;;;;;;5097807;27;20051;-86
2022/12/17 17:41:04;;;;;;;97.38;31.02;;;-1.50;99.90;;;;;;5117460;27;20043;-86
2022/12/17 17:43:30;;;;;;;98.15;29.40;;;-0.50;99.90;;;;;;5099730;27;20555;-86
2022/12/17 17:45:57;;;;;;;101.90;32.35;;;-1.50;99.90;;;;;;5118414;27;20050;-86
2022/12/17 17:48:23;;;;;;;103.07;31.15;;;-1.60;99.90;;;;;;5085931;27;20050;-86
2022/12/17 17:51:02;;;;;;;102.90;34.95;;;-1.50;99.90;;;;;;5101554;27;20050;-87
2022/12/17 17:53:28;;;;;;;108.40;33.25;;;-1.60;99.90;;;;;;5100032;27;20039;-87
2022/12/17 17:55:54;;;;;;;100.30;32.42;;;-1.60;99.90;;;;;;5135074;27;20156;-87
2022/12/17 17:58:20;;;;;;;87.82;30.17;;;-1.40;99.90;;;;;;5101711;27;20047;-86
2022/12/17 18:00:45;;;;;;;99.60;33.83;;;-1.10;99.90;;;;;;5117474;27;20111;-87
2022/12/17 18:03:11;;;;;;;94.18;31.67;;;-0.30;99.90;;;;;;5100904;27;20069;-85
2022/12/17 18:05:37;;;;;;;94.30;33.90;;;-1.60;99.90;;;;;;5136078;27;20397;-88
2022/12/17 18:08:03;;;;;;;102.47;33.30;;;-0.30;99.90;;;;;;5118065;27;20050;-87
2022/12/17 18:10:29;;;;;;;100.28;33.80;;;-1.70;99.90;;;;;;5135101;27;20046;-87
2022/12/17 18:15:39;;;;;;;105.63;36.15;;;-1.60;99.90;;;;;;5134332;27;20055;-87
2022/12/17 18:18:04;;;;;;;99.72;32.60;;;-1.70;99.90;;;;;;5134764;27;20055;-86
2022/12/17 18:20:30;;;;;;;104.55;37.63;;;-1.70;99.90;;;;;;5117143;27;20470;-86
2022/12/17 18:22:56;;;;;;;98.13;34.90;;;-1.70;99.90;;;;;;5134288;27;20050;-86
2022/12/17 18:25:21;;;;;;;106.03;38.40;;;-1.70;99.90;;;;;;5134541;27;20061;-85
2022/12/17 18:27:47;;;;;;;108.45;37.80;;;-1.70;99.90;;;;;;5117607;27;20043;-86
2022/12/17 18:30:13;;;;;;;97.25;37.45;;;-1.80;99.90;;;;;;5117867;27;20153;-86
2022/12/17 18:32:38;;;;;;;97.20;34.58;;;-1.80;99.90;;;;;;5138326;27;20046;-92
2022/12/17 18:35:04;;;;;;;95.82;36.28;;;-0.80;99.90;;;;;;5117318;27;20035;-91
2022/12/17 18:37:30;;;;;;;104.70;38.33;;;-1.80;99.90;;;;;;5134239;27;20054;-89
2022/12/17 18:39:56;;;;;;;107.32;37.03;;;-1.80;99.90;;;;;;5157085;27;20046;-90
2022/12/17 18:45:11;;;;;;;100.40;36.35;;;-0.30;99.90;;;;;;5170426;22;20048;-89
2022/12/17 18:48:02;;;;;;;95.50;36.80;;;-1.20;99.90;;;;;;5182404;22;20044;31
2022/12/17 18:50:33;;;;;;;104.35;38.70;;;-1.80;99.90;;;;;;5324468;23;20115;31
2022/12/17 18:52:59;;;;;;;101.47;36.78;;;-0.90;99.90;;;;;;4944258;29;20108;-90
2022/12/17 18:55:25;;;;;;;108.97;39.05;;;-1.90;99.90;;;;;;4988689;28;20059;-92
2022/12/17 18:57:50;;;;;;;110.32;39.85;;;-1.90;99.90;;;;;;4957026;29;20070;-92
2022/12/17 19:00:16;;;;;;;111.35;38.80;;;-1.90;99.90;;;;;;4988315;28;20127;-91
2022/12/17 19:02:42;;;;;;;93.95;35.03;;;-1.90;99.90;;;;;;4970951;28;20149;-93
2022/12/17 19:05:08;;;;;;;102.43;36.67;;;-1.90;99.90;;;;;;4938485;29;20062;-90
2022/12/17 19:07:34;;;;;;;114.78;40.58;;;-0.70;99.90;;;;;;4971076;28;20051;-92
2022/12/17 19:09:59;;;;;;;110.97;40.25;;;-1.90;99.90;;;;;;4975508;28;20059;-91
2022/12/17 19:12:25;;;;;;;103.57;36.58;;;-0.50;99.90;;;;;;4946117;29;20051;-92
2022/12/17 19:14:51;;;;;;;102.88;38.78;;;-1.90;99.90;;;;;;4983453;28;20071;-91
2022/12/17 19:17:17;;;;;;;109.65;40.05;;;-1.20;99.90;;;;;;4925018;29;20055;-95
2022/12/17 19:19:42;;;;;;;121.57;43.78;;;-1.60;99.90;;;;;;4991247;28;20066;-89
2022/12/17 19:22:08;;;;;;;116.03;40.45;;;-2.00;99.90;;;;;;4989379;28;20123;-90
2022/12/17 19:24:33;;;;;;;107.72;37.13;;;-2.00;99.90;;;;;;4937626;29;20468;-90
2022/12/17 19:26:59;;;;;;;110.63;38.85;;;-2.00;99.90;;;;;;4986493;28;20055;-90
2022/12/17 19:29:25;;;;;;;100.70;38.00;;;-2.00;99.90;;;;;;4970034;28;20057;-91
2022/12/17 19:31:50;;;;;;;99.78;36.25;;;-2.00;99.90;;;;;;4937379;29;20126;-89
2022/12/17 19:34:17;;;;;;;104.63;38.33;;;-2.00;99.90;;;;;;4970103;28;20075;-91
2022/12/17 19:36:43;;;;;;;101.75;38.88;;;-1.80;99.90;;;;;;4969484;28;20051;-89
2022/12/17 19:39:14;;;;;;;106.72;39.72;;;-1.90;99.90;;;;;;4969107;28;20117;-89
2022/12/17 19:41:40;;;;;;;104.57;41.72;;;-2.00;99.90;;;;;;4969390;28;20059;-90
2022/12/17 19:44:07;;;;;;;105.60;41.00;;;-2.00;99.90;;;;;;4969558;28;20074;-91
2022/12/17 19:46:34;;;;;;;107.25;40.63;;;-1.50;99.90;;;;;;4935854;29;20055;-88
2022/12/17 19:49:01;;;;;;;104.88;40.67;;;-0.90;99.90;;;;;;4954961;29;20051;-92
2022/12/17 19:51:27;;;;;;;112.90;40.63;;;-2.00;99.90;;;;;;4968247;28;20091;-91
2022/12/17 19:53:53;;;;;;;117.50;40.50;;;-2.00;99.90;;;;;;4935751;29;20059;-90
2022/12/17 19:56:27;;;;;;;121.28;44.20;;;-2.00;99.90;;;;;;4919628;29;20073;-88
2022/12/17 19:59:00;;;;;;;120.97;42.92;;;-2.00;99.90;;;;;;4951273;29;20428;-89
2022/12/17 20:01:56;;;;;;;119.65;41.95;;;-2.00;99.90;;;;;;4934443;29;20063;-89
2022/12/17 20:04:21;;;;;;;111.20;36.50;;;-2.00;99.90;;;;;;4942666;29;20059;-90
2022/12/17 20:06:47;;;;;;;115.57;43.97;;;-1.20;99.90;;;;;;4967504;28;20113;-89
2022/12/17 20:09:13;;;;;;;116.57;41.58;;;-1.90;99.90;;;;;;4967758;28;20058;-87
2022/12/17 20:11:39;;;;;;;118.18;38.67;;;-1.90;99.90;;;;;;4967687;28;20190;-89
2022/12/17 20:14:22;;;;;;;115.45;43.50;;;-1.10;99.90;;;;;;4951533;29;20043;-93
2022/12/17 20:16:54;;;;;;;119.82;42.70;;;-1.80;99.90;;;;;;4983678;28;20162;-92
2022/12/17 20:19:29;;;;;;;114.80;40.72;;;-2.00;99.90;;;;;;4952505;28;20055;-89
2022/12/17 20:21:55;;;;;;;117.55;40.17;;;-2.00;99.90;;;;;;4925155;29;20098;-91
2022/12/17 20:24:21;;;;;;;121.20;41.17;;;-2.00;99.90;;;;;;4953694;28;20047;-91
2022/12/17 20:26:48;;;;;;;115.15;42.15;;;-2.10;99.90;;;;;;4938177;29;20058;-88
2022/12/17 20:29:14;;;;;;;111.95;40.65;;;-2.10;99.90;;;;;;4985976;28;20178;-94
2022/12/17 20:31:41;;;;;;;124.88;42.38;;;-2.10;99.90;;;;;;4921706;29;20138;-91
2022/12/17 20:34:07;;;;;;;119.80;39.00;;;-2.10;99.90;;;;;;4956775;28;20706;-91
2022/12/17 20:36:33;;;;;;;122.82;40.33;;;-2.10;99.90;;;;;;4924633;29;20055;-92
2022/12/17 20:38:59;;;;;;;101.72;37.83;;;-2.20;99.90;;;;;;4957168;28;20503;-90
2022/12/17 20:41:26;;;;;;;107.43;38.40;;;-2.20;99.90;;;;;;4957731;28;20050;-90
2022/12/17 20:43:52;;;;;;;107.88;37.05;;;-2.20;99.90;;;;;;4972405;28;20090;-89
2022/12/17 20:46:18;;;;;;;111.57;38.35;;;-2.20;99.90;;;;;;4940467;29;20083;-91
2022/12/17 20:48:44;;;;;;;127.75;43.05;;;-1.00;99.90;;;;;;4924645;29;20051;-90
2022/12/17 20:51:18;;;;;;;110.60;38.72;;;-2.20;99.90;;;;;;4923360;29;20099;-91
2022/12/17 20:53:43;;;;;;;116.28;39.83;;;-2.20;99.90;;;;;;4972062;28;20529;-92
2022/12/17 20:56:14;;;;;;;113.63;40.00;;;-2.20;99.90;;;;;;4958094;28;20044;-91
2022/12/17 20:58:40;;;;;;;109.90;36.75;;;-2.20;99.90;;;;;;5139644;23;20058;-92
2022/12/17 21:01:08;;;;;;;108.00;36.80;;;-2.00;99.90;;;;;;4966098;28;20141;-90
2022/12/17 21:03:33;;;;;;;107.80;33.97;;;-1.90;99.90;;;;;;4986506;28;20057;-93
2022/12/17 21:06:10;;;;;;;115.88;38.53;;;-2.40;99.90;;;;;;4983115;28;20045;-91
2022/12/17 21:08:36;;;;;;;114.78;39.33;;;-2.40;99.90;;;;;;4967219;28;20042;-91
2022/12/17 21:11:02;;;;;;;105.50;37.58;;;-1.00;99.90;;;;;;4966330;28;20046;-92
2022/12/17 21:13:28;;;;;;;102.75;34.78;;;-2.40;99.90;;;;;;4981634;28;20054;-92
2022/12/17 21:15:54;;;;;;;78.43;29.25;;;-2.40;99.90;;;;;;4980887;28;20057;-91
2022/12/17 21:18:20;;;;;;;111.78;37.08;;;-1.10;99.90;;;;;;5020244;28;20057;-94
2022/12/17 21:21:03;;;;;;;116.18;37.67;;;-1.40;99.90;;;;;;4980199;28;20038;-93
2022/12/17 21:23:29;;;;;;;110.53;36.83;;;-2.50;99.90;;;;;;4977334;28;20060;-91
2022/12/17 21:25:58;;;;;;;122.40;40.33;;;-2.50;99.90;;;;;;5011587;28;20046;-91
2022/12/17 21:28:24;;;;;;;122.78;40.22;;;-2.50;99.90;;;;;;4976770;28;20072;-89
2022/12/17 21:30:50;;;;;;;125.85;36.53;;;-1.50;99.90;;;;;;5011740;28;20478;-93
2022/12/17 21:33:16;;;;;;;119.82;39.50;;;-2.60;99.90;;;;;;5010071;28;20061;-89
2022/12/17 21:35:41;;;;;;;116.28;36.13;;;-2.50;99.90;;;;;;4995403;28;20057;-88
2022/12/17 21:38:07;;;;;;;121.32;39.30;;;-2.40;99.90;;;;;;4993678;28;20050;-91
2022/12/17 21:40:36;;;;;;;125.80;38.58;;;-1.30;99.90;;;;;;5010458;28;20038;-93
2022/12/17 21:43:02;;;;;;;107.65;38.53;;;-2.50;99.90;;;;;;4979599;28;20053;-92
2022/12/17 21:45:37;;;;;;;116.28;37.20;;;-2.60;99.90;;;;;;4994847;28;20046;-91
2022/12/17 21:48:04;;;;;;;119.13;38.15;;;-2.60;99.90;;;;;;4963994;28;20085;-96
2022/12/17 21:50:29;;;;;;;116.38;36.78;;;-2.60;99.90;;;;;;4963095;28;20054;-87
2022/12/17 21:52:55;;;;;;;113.97;36.97;;;-1.60;99.90;;;;;;4994182;28;20069;-90
2022/12/17 21:55:21;;;;;;;124.78;39.60;;;-1.50;99.90;;;;;;4964246;28;20054;-94
2022/12/17 21:57:46;;;;;;;127.43;38.30;;;-2.60;99.90;;;;;;4983324;28;20097;-95
2022/12/17 22:00:13;;;;;;;114.20;37.40;;;-1.50;99.90;;;;;;5003499;28;20058;-93
2022/12/17 22:02:38;;;;;;;115.13;33.20;;;-2.60;99.90;;;;;;5004165;28;20046;-93
2022/12/17 22:05:04;;;;;;;134.63;41.03;;;-1.70;99.90;;;;;;5002250;28;20041;-93
2022/12/17 22:07:30;;;;;;;135.27;39.00;;;-2.60;99.90;;;;;;5018309;28;20049;-92
2022/12/17 22:09:55;;;;;;;122.93;36.90;;;-2.60;99.90;;;;;;4990498;28;20189;-90
2022/12/17 22:15:06;;;;;;;116.28;37.80;;;-2.70;99.90;;;;;;5000891;28;20058;-93
2022/12/17 22:17:31;;;;;;;118.20;36.80;;;-2.60;99.90;;;;;;5006477;28;20045;-88
2022/12/17 22:19:57;;;;;;;126.32;38.38;;;-2.70;99.90;;;;;;5008054;28;20041;-89
2022/12/17 22:22:23;;;;;;;126.03;38.65;;;-2.60;99.90;;;;;;5011983;28;20046;-91
2022/12/17 22:24:48;;;;;;;122.40;39.20;;;-1.60;99.90;;;;;;5003485;28;20426;-90
2022/12/17 22:27:14;;;;;;;116.45;36.05;;;-1.70;99.90;;;;;;4997447;28;20053;-92
2022/12/17 22:35:08;;;;;;;84.75;30.65;;;-2.80;99.90;;;;;;5014280;28;20400;-93
2022/12/17 22:37:34;;;;;;;99.93;31.85;;;-1.50;99.90;;;;;;4981308;28;20050;-91
2022/12/17 22:39:59;;;;;;;94.35;31.55;;;-2.80;99.90;;;;;;4980934;28;20046;-93
2022/12/17 22:45:09;;;;;;;94.45;32.17;;;-2.30;99.90;;;;;;4996101;28;20144;-88
2022/12/17 22:47:35;;;;;;;98.05;32.88;;;-2.90;99.90;;;;;;4995297;28;20550;-90
2022/12/17 22:50:00;;;;;;;93.22;31.75;;;-2.90;99.90;;;;;;4995718;28;20049;-90
2022/12/17 22:52:26;;;;;;;90.90;31.25;;;-1.30;99.90;;;;;;4979149;28;20056;-90
2022/12/17 22:54:52;;;;;;;110.82;34.33;;;-1.50;99.90;;;;;;4978107;28;20088;-91
2022/12/17 22:57:17;;;;;;;86.75;27.50;;;-2.90;99.90;;;;;;4995202;28;20042;-89
2022/12/17 22:59:43;;;;;;;103.63;31.00;;;-2.90;99.90;;;;;;4995255;28;20045;-90
2022/12/17 23:02:10;;;;;;;81.38;26.83;;;-3.00;99.90;;;;;;4978701;28;20093;-90
2022/12/17 23:04:35;;;;;;;99.20;33.30;;;-2.40;99.90;;;;;;4977868;28;20165;-88
2022/12/17 23:07:01;;;;;;;103.63;31.70;;;-3.00;99.90;;;;;;4994021;28;20496;-87
2022/12/17 23:09:27;;;;;;;99.10;32.33;;;-3.00;99.90;;;;;;4994963;28;20046;-88
2022/12/17 23:11:52;;;;;;;104.97;33.47;;;-3.00;99.90;;;;;;4994069;28;20037;-87
2022/12/17 23:14:18;;;;;;;111.43;33.05;;;-3.00;99.90;;;;;;4993568;28;20136;-89
2022/12/17 23:16:44;;;;;;;102.05;31.45;;;-3.00;99.90;;;;;;4993100;28;20092;-86
2022/12/17 23:19:09;;;;;;;98.90;31.45;;;-3.00;99.90;;;;;;4977003;28;20046;-86
2022/12/17 23:21:35;;;;;;;80.25;28.38;;;-3.00;99.90;;;;;;4993552;28;20057;-88
2022/12/17 23:24:01;;;;;;;98.30;31.85;;;-2.90;99.90;;;;;;4993828;28;20053;-89
2022/12/17 23:26:31;;;;;;;105.38;31.92;;;-1.40;99.90;;;;;;4977466;28;20046;-88
2022/12/17 23:29:00;;;;;;;100.00;32.17;;;-3.00;99.90;;;;;;4977669;28;20061;-89
2022/12/17 23:31:27;;;;;;;112.32;31.67;;;-2.00;99.90;;;;;;4977450;28;20482;-88
2022/12/17 23:33:53;;;;;;;103.80;32.90;;;-2.50;99.90;;;;;;4977482;28;20058;-88
2022/12/17 23:36:19;;;;;;;106.45;33.63;;;-3.00;99.90;;;;;;4977501;28;20061;-87
2022/12/17 23:38:45;;;;;;;95.47;30.65;;;-3.00;99.90;;;;;;4993411;28;20057;-88
2022/12/17 23:41:22;;;;;;;104.07;32.00;;;-3.00;99.90;;;;;;4977370;28;20046;-89
2022/12/17 23:43:48;;;;;;;96.47;32.72;;;-2.10;99.90;;;;;;4977162;28;20053;-90
2022/12/17 23:46:14;;;;;;;100.30;29.33;;;-3.00;99.90;;;;;;4978879;28;20073;-89
2022/12/17 23:48:41;;;;;;;101.97;30.92;;;-3.00;99.90;;;;;;4994390;28;20129;-90
2022/12/17 23:51:06;;;;;;;96.47;30.55;;;-2.80;99.90;;;;;;4994295;28;20541;-87
2022/12/17 23:53:32;;;;;;;99.10;31.35;;;-3.00;99.90;;;;;;4995126;28;20118;-89
2022/12/17 23:56:06;;;;;;;98.70;30.35;;;-3.00;99.90;;;;;;4978799;28;20565;-90
2022/12/17 23:58:32;;;;;;;95.03;30.83;;;-3.10;99.90;;;;;;4977932;28;20097;-89
